sensor_id;sensor_type;location;lat;lon;timestamp;temperature;humidity
56308;DHT22;42217;50.422;7.210;2023-04-20T00:00:08;1.70;95.40
56308;DHT22;42217;50.422;7.210;2023-04-20T00:02:36;1.60;98.50
56308;DHT22;42217;50.422;7.210;2023-04-20T00:05:04;1.50;99.90
56308;DHT22;42217;50.422;7.210;2023-04-20T00:07:30;1.60;99.90
56308;DHT22;42217;50.422;7.210;2023-04-20T00:09:56;1.80;98.80
56308;DHT22;42217;50.422;7.210;2023-04-20T00:12:21;2.10;93.60
56308;DHT22;42217;50.422;7.210;2023-04-20T00:14:47;2.20;85.50
56308;DHT22;42217;50.422;7.210;2023-04-20T00:17:13;2.10;87.90
56308;DHT22;42217;50.422;7.210;2023-04-20T00:19:39;2.10;93.00
56308;DHT22;42217;50.422;7.210;2023-04-20T00:22:04;2.30;87.60
56308;DHT22;42217;50.422;7.210;2023-04-20T00:24:30;2.70;66.60
56308;DHT22;42217;50.422;7.210;2023-04-20T00:26:56;3.20;40.50
56308;DHT22;42217;50.422;7.210;2023-04-20T00:29:21;3.50;22.60
56308;DHT22;42217;50.422;7.210;2023-04-20T00:31:47;3.60;35.90
56308;DHT22;42217;50.422;7.210;2023-04-20T00:34:14;3.80;11.50
56308;DHT22;42217;50.422;7.210;2023-04-20T00:36:40;4.00;1.00
56308;DHT22;42217;50.422;7.210;2023-04-20T00:39:06;4.20;1.00
56308;DHT22;42217;50.422;7.210;2023-04-20T00:41:31;4.40;1.00
56308;DHT22;42217;50.422;7.210;2023-04-20T00:43:57;4.60;1.00
56308;DHT22;42217;50.422;7.210;2023-04-20T00:46:23;4.50;1.00
56308;DHT22;42217;50.422;7.210;2023-04-20T00:48:49;4.50;1.00
56308;DHT22;42217;50.422;7.210;2023-04-20T00:51:20;4.60;1.00
56308;DHT22;42217;50.422;7.210;2023-04-20T00:53:47;4.50;1.00
56308;DHT22;42217;50.422;7.210;2023-04-20T00:56:13;4.40;1.00
56308;DHT22;42217;50.422;7.210;2023-04-20T00:58:40;4.40;1.00
56308;DHT22;42217;50.422;7.210;2023-04-20T01:01:06;4.40;1.00
56308;DHT22;42217;50.422;7.210;2023-04-20T01:03:33;4.50;1.00
56308;DHT22;42217;50.422;7.210;2023-04-20T01:05:59;4.40;1.00
56308;DHT22;42217;50.422;7.210;2023-04-20T01:08:26;4.50;1.00
56308;DHT22;42217;50.422;7.210;2023-04-20T01:10:53;4.50;1.00
56308;DHT22;42217;50.422;7.210;2023-04-20T01:13:19;4.40;1.00
56308;DHT22;42217;50.422;7.210;2023-04-20T01:15:45;4.60;1.00
56308;DHT22;42217;50.422;7.210;2023-04-20T01:18:11;4.90;1.00
56308;DHT22;42217;50.422;7.210;2023-04-20T01:20:37;5.20;1.00
56308;DHT22;42217;50.422;7.210;2023-04-20T01:23:02;5.20;1.00
56308;DHT22;42217;50.422;7.210;2023-04-20T01:25:28;5.40;1.00
56308;DHT22;42217;50.422;7.210;2023-04-20T01:27:54;5.40;1.00
56308;DHT22;42217;50.422;7.210;2023-04-20T01:30:20;5.40;1.00
56308;DHT22;42217;50.422;7.210;2023-04-20T01:32:46;5.40;1.00
56308;DHT22;42217;50.422;7.210;2023-04-20T01:35:12;5.40;1.00
56308;DHT22;42217;50.422;7.210;2023-04-20T01:37:38;5.40;1.00
56308;DHT22;42217;50.422;7.210;2023-04-20T01:40:07;5.50;1.00
56308;DHT22;42217;50.422;7.210;2023-04-20T01:42:33;5.60;1.00
56308;DHT22;42217;50.422;7.210;2023-04-20T01:44:58;5.70;1.00
56308;DHT22;42217;50.422;7.210;2023-04-20T01:47:24;5.70;1.00
56308;DHT22;42217;50.422;7.210;2023-04-20T01:49:50;5.70;1.00
56308;DHT22;42217;50.422;7.210;2023-04-20T01:52:15;5.60;1.00
56308;DHT22;42217;50.422;7.210;2023-04-20T01:54:41;5.60;1.00
56308;DHT22;42217;50.422;7.210;2023-04-20T01:57:07;5.60;1.00
56308;DHT22;42217;50.422;7.210;2023-04-20T01:59:32;5.70;1.00
56308;DHT22;42217;50.422;7.210;2023-04-20T02:01:58;5.70;1.00
56308;DHT22;42217;50.422;7.210;2023-04-20T02:04:24;5.60;1.00
56308;DHT22;42217;50.422;7.210;2023-04-20T02:06:49;5.60;1.00
56308;DHT22;42217;50.422;7.210;2023-04-20T02:09:15;5.60;1.00
56308;DHT22;42217;50.422;7.210;2023-04-20T02:11:41;5.50;1.00
56308;DHT22;42217;50.422;7.210;2023-04-20T02:14:06;5.50;1.00
56308;DHT22;42217;50.422;7.210;2023-04-20T02:16:32;5.50;1.00
56308;DHT22;42217;50.422;7.210;2023-04-20T02:18:58;5.50;1.00
56308;DHT22;42217;50.422;7.210;2023-04-20T02:21:23;5.50;1.00
56308;DHT22;42217;50.422;7.210;2023-04-20T02:23:49;5.50;1.00
56308;DHT22;42217;50.422;7.210;2023-04-20T02:26:15;5.50;1.00
56308;DHT22;42217;50.422;7.210;2023-04-20T02:28:41;5.30;1.00
56308;DHT22;42217;50.422;7.210;2023-04-20T02:31:07;5.20;1.00
56308;DHT22;42217;50.422;7.210;2023-04-20T02:33:33;5.30;1.00
56308;DHT22;42217;50.422;7.210;2023-04-20T02:35:58;5.30;1.00
56308;DHT22;42217;50.422;7.210;2023-04-20T02:38:25;5.20;4.60
56308;DHT22;42217;50.422;7.210;2023-04-20T02:40:51;5.10;1.00
56308;DHT22;42217;50.422;7.210;2023-04-20T02:43:17;5.20;1.00
56308;DHT22;42217;50.422;7.210;2023-04-20T02:45:42;5.30;10.00
56308;DHT22;42217;50.422;7.210;2023-04-20T02:48:08;5.20;24.80
56308;DHT22;42217;50.422;7.210;2023-04-20T02:50:34;5.20;22.50
56308;DHT22;42217;50.422;7.210;2023-04-20T02:53:00;5.10;33.10
56308;DHT22;42217;50.422;7.210;2023-04-20T02:55:26;5.10;50.50
56308;DHT22;42217;50.422;7.210;2023-04-20T02:57:52;4.90;48.80
56308;DHT22;42217;50.422;7.210;2023-04-20T03:00:18;4.90;55.80
56308;DHT22;42217;50.422;7.210;2023-04-20T03:02:44;4.90;57.60
56308;DHT22;42217;50.422;7.210;2023-04-20T03:05:09;4.80;66.60
56308;DHT22;42217;50.422;7.210;2023-04-20T03:07:35;4.70;74.00
56308;DHT22;42217;50.422;7.210;2023-04-20T03:10:01;4.70;80.90
56308;DHT22;42217;50.422;7.210;2023-04-20T03:12:26;4.60;84.30
56308;DHT22;42217;50.422;7.210;2023-04-20T03:14:52;4.50;88.60
56308;DHT22;42217;50.422;7.210;2023-04-20T03:17:18;4.40;92.90
56308;DHT22;42217;50.422;7.210;2023-04-20T03:19:43;4.50;92.20
56308;DHT22;42217;50.422;7.210;2023-04-20T03:22:09;4.40;94.30
56308;DHT22;42217;50.422;7.210;2023-04-20T03:24:35;4.40;96.30
56308;DHT22;42217;50.422;7.210;2023-04-20T03:27:00;4.40;96.10
56308;DHT22;42217;50.422;7.210;2023-04-20T03:29:26;4.50;99.60
56308;DHT22;42217;50.422;7.210;2023-04-20T03:31:51;4.40;99.90
56308;DHT22;42217;50.422;7.210;2023-04-20T03:34:17;4.40;99.50
56308;DHT22;42217;50.422;7.210;2023-04-20T03:36:43;4.40;99.90
56308;DHT22;42217;50.422;7.210;2023-04-20T03:39:08;4.40;99.90
56308;DHT22;42217;50.422;7.210;2023-04-20T03:41:34;4.40;99.90
56308;DHT22;42217;50.422;7.210;2023-04-20T03:44:00;4.40;92.10
56308;DHT22;42217;50.422;7.210;2023-04-20T03:46:26;4.30;99.90
56308;DHT22;42217;50.422;7.210;2023-04-20T03:48:51;4.30;99.90
56308;DHT22;42217;50.422;7.210;2023-04-20T03:51:17;4.30;99.90
56308;DHT22;42217;50.422;7.210;2023-04-20T03:53:43;4.20;99.90
56308;DHT22;42217;50.422;7.210;2023-04-20T03:56:08;4.00;99.90
56308;DHT22;42217;50.422;7.210;2023-04-20T03:58:34;3.90;99.90
56308;DHT22;42217;50.422;7.210;2023-04-20T04:01:04;3.80;99.90
56308;DHT22;42217;50.422;7.210;2023-04-20T04:03:32;3.70;99.90
56308;DHT22;42217;50.422;7.210;2023-04-20T04:05:58;3.70;99.90
56308;DHT22;42217;50.422;7.210;2023-04-20T04:08:24;3.80;99.90
56308;DHT22;42217;50.422;7.210;2023-04-20T04:10:50;3.70;99.90
56308;DHT22;42217;50.422;7.210;2023-04-20T04:13:16;3.70;99.90
56308;DHT22;42217;50.422;7.210;2023-04-20T04:15:41;3.60;99.90
56308;DHT22;42217;50.422;7.210;2023-04-20T04:18:07;3.50;99.90
56308;DHT22;42217;50.422;7.210;2023-04-20T04:20:33;3.40;99.90
56308;DHT22;42217;50.422;7.210;2023-04-20T04:22:59;3.40;99.90
56308;DHT22;42217;50.422;7.210;2023-04-20T04:25:24;3.40;99.90
56308;DHT22;42217;50.422;7.210;2023-04-20T04:27:50;3.30;99.90
56308;DHT22;42217;50.422;7.210;2023-04-20T04:30:16;3.30;99.90
56308;DHT22;42217;50.422;7.210;2023-04-20T04:32:44;3.20;99.90
56308;DHT22;42217;50.422;7.210;2023-04-20T04:35:11;3.20;99.90
56308;DHT22;42217;50.422;7.210;2023-04-20T04:37:36;3.20;99.90
56308;DHT22;42217;50.422;7.210;2023-04-20T04:40:02;3.20;99.90
56308;DHT22;42217;50.422;7.210;2023-04-20T04:42:32;3.20;99.90
56308;DHT22;42217;50.422;7.210;2023-04-20T04:44:59;3.10;99.90
56308;DHT22;42217;50.422;7.210;2023-04-20T04:47:27;3.10;99.90
56308;DHT22;42217;50.422;7.210;2023-04-20T04:49:54;3.10;99.90
56308;DHT22;42217;50.422;7.210;2023-04-20T04:52:21;3.10;99.90
56308;DHT22;42217;50.422;7.210;2023-04-20T04:54:47;3.10;99.90
56308;DHT22;42217;50.422;7.210;2023-04-20T04:57:13;3.00;99.90
56308;DHT22;42217;50.422;7.210;2023-04-20T04:59:40;3.00;99.90
56308;DHT22;42217;50.422;7.210;2023-04-20T05:02:05;3.00;99.90
56308;DHT22;42217;50.422;7.210;2023-04-20T05:04:31;3.00;99.90
56308;DHT22;42217;50.422;7.210;2023-04-20T05:06:57;3.00;99.90
56308;DHT22;42217;50.422;7.210;2023-04-20T05:09:22;3.00;99.90
56308;DHT22;42217;50.422;7.210;2023-04-20T05:11:48;3.00;99.90
56308;DHT22;42217;50.422;7.210;2023-04-20T05:14:14;3.00;99.90
56308;DHT22;42217;50.422;7.210;2023-04-20T05:16:39;3.10;99.90
56308;DHT22;42217;50.422;7.210;2023-04-20T05:19:05;3.10;99.90
56308;DHT22;42217;50.422;7.210;2023-04-20T05:21:31;3.10;99.90
56308;DHT22;42217;50.422;7.210;2023-04-20T05:23:57;3.10;99.90
56308;DHT22;42217;50.422;7.210;2023-04-20T05:26:22;3.10;99.90
56308;DHT22;42217;50.422;7.210;2023-04-20T05:28:48;3.10;99.90
56308;DHT22;42217;50.422;7.210;2023-04-20T05:31:14;3.20;99.90
56308;DHT22;42217;50.422;7.210;2023-04-20T05:33:40;3.20;99.90
56308;DHT22;42217;50.422;7.210;2023-04-20T05:36:08;3.20;99.90
56308;DHT22;42217;50.422;7.210;2023-04-20T05:38:34;3.20;99.90
56308;DHT22;42217;50.422;7.210;2023-04-20T05:41:00;3.20;99.90
56308;DHT22;42217;50.422;7.210;2023-04-20T05:43:25;3.10;99.90
56308;DHT22;42217;50.422;7.210;2023-04-20T05:45:51;3.20;99.90
56308;DHT22;42217;50.422;7.210;2023-04-20T05:48:17;3.30;99.90
56308;DHT22;42217;50.422;7.210;2023-04-20T05:50:42;3.40;99.90
56308;DHT22;42217;50.422;7.210;2023-04-20T05:53:08;3.50;99.90
56308;DHT22;42217;50.422;7.210;2023-04-20T05:55:34;3.60;99.90
56308;DHT22;42217;50.422;7.210;2023-04-20T05:57:59;3.70;99.90
56308;DHT22;42217;50.422;7.210;2023-04-20T06:00:25;3.60;99.90
56308;DHT22;42217;50.422;7.210;2023-04-20T06:02:51;3.70;99.90
56308;DHT22;42217;50.422;7.210;2023-04-20T06:05:18;3.80;99.90
56308;DHT22;42217;50.422;7.210;2023-04-20T06:07:45;3.80;99.90
56308;DHT22;42217;50.422;7.210;2023-04-20T06:10:11;3.90;99.90
56308;DHT22;42217;50.422;7.210;2023-04-20T06:12:37;3.90;99.90
56308;DHT22;42217;50.422;7.210;2023-04-20T06:15:03;3.90;99.90
56308;DHT22;42217;50.422;7.210;2023-04-20T06:17:34;3.90;99.90
56308;DHT22;42217;50.422;7.210;2023-04-20T06:20:00;4.00;99.90
56308;DHT22;42217;50.422;7.210;2023-04-20T06:22:26;4.00;99.90
56308;DHT22;42217;50.422;7.210;2023-04-20T06:24:52;4.00;99.90
56308;DHT22;42217;50.422;7.210;2023-04-20T06:27:20;4.10;99.90
56308;DHT22;42217;50.422;7.210;2023-04-20T06:29:46;4.00;99.90
56308;DHT22;42217;50.422;7.210;2023-04-20T06:32:11;4.00;99.90
56308;DHT22;42217;50.422;7.210;2023-04-20T06:34:37;4.00;99.90
56308;DHT22;42217;50.422;7.210;2023-04-20T06:37:05;3.90;99.90
56308;DHT22;42217;50.422;7.210;2023-04-20T06:39:31;3.90;99.90
56308;DHT22;42217;50.422;7.210;2023-04-20T06:41:56;3.90;99.90
56308;DHT22;42217;50.422;7.210;2023-04-20T06:44:23;3.90;99.90
56308;DHT22;42217;50.422;7.210;2023-04-20T06:46:49;3.90;99.90
56308;DHT22;42217;50.422;7.210;2023-04-20T06:49:15;4.00;99.90
56308;DHT22;42217;50.422;7.210;2023-04-20T06:51:42;3.90;99.90
56308;DHT22;42217;50.422;7.210;2023-04-20T06:54:07;3.90;99.90
56308;DHT22;42217;50.422;7.210;2023-04-20T06:56:33;3.90;99.90
56308;DHT22;42217;50.422;7.210;2023-04-20T06:58:58;3.80;99.90
56308;DHT22;42217;50.422;7.210;2023-04-20T07:01:24;3.80;99.90
56308;DHT22;42217;50.422;7.210;2023-04-20T07:03:50;3.80;99.90
56308;DHT22;42217;50.422;7.210;2023-04-20T07:06:16;3.80;99.90
56308;DHT22;42217;50.422;7.210;2023-04-20T07:08:42;3.90;99.90
56308;DHT22;42217;50.422;7.210;2023-04-20T07:11:07;3.80;99.90
56308;DHT22;42217;50.422;7.210;2023-04-20T07:13:33;3.80;99.90
56308;DHT22;42217;50.422;7.210;2023-04-20T07:15:59;3.90;99.90
56308;DHT22;42217;50.422;7.210;2023-04-20T07:18:25;3.80;99.90
56308;DHT22;42217;50.422;7.210;2023-04-20T07:20:51;4.00;99.90
56308;DHT22;42217;50.422;7.210;2023-04-20T07:23:17;4.10;99.90
56308;DHT22;42217;50.422;7.210;2023-04-20T07:25:42;4.00;99.90
56308;DHT22;42217;50.422;7.210;2023-04-20T07:28:08;4.10;99.90
56308;DHT22;42217;50.422;7.210;2023-04-20T07:30:33;4.10;99.90
56308;DHT22;42217;50.422;7.210;2023-04-20T07:32:59;4.10;99.90
56308;DHT22;42217;50.422;7.210;2023-04-20T07:35:25;4.10;99.90
56308;DHT22;42217;50.422;7.210;2023-04-20T07:37:50;4.10;99.90
56308;DHT22;42217;50.422;7.210;2023-04-20T07:40:16;4.10;99.90
56308;DHT22;42217;50.422;7.210;2023-04-20T07:42:42;4.30;99.90
56308;DHT22;42217;50.422;7.210;2023-04-20T07:45:09;4.40;99.90
56308;DHT22;42217;50.422;7.210;2023-04-20T07:47:36;4.50;99.90
56308;DHT22;42217;50.422;7.210;2023-04-20T07:50:03;4.50;99.90
56308;DHT22;42217;50.422;7.210;2023-04-20T07:52:29;4.50;99.90
56308;DHT22;42217;50.422;7.210;2023-04-20T07:54:55;4.50;99.90
56308;DHT22;42217;50.422;7.210;2023-04-20T07:57:25;4.40;99.90
56308;DHT22;42217;50.422;7.210;2023-04-20T07:59:51;4.50;99.90
56308;DHT22;42217;50.422;7.210;2023-04-20T08:02:17;4.50;99.90
56308;DHT22;42217;50.422;7.210;2023-04-20T08:04:43;4.40;99.90
56308;DHT22;42217;50.422;7.210;2023-04-20T08:07:09;4.40;99.90
56308;DHT22;42217;50.422;7.210;2023-04-20T08:09:35;4.40;99.90
56308;DHT22;42217;50.422;7.210;2023-04-20T08:12:01;4.40;99.90
56308;DHT22;42217;50.422;7.210;2023-04-20T08:14:27;4.30;99.90
56308;DHT22;42217;50.422;7.210;2023-04-20T08:16:52;4.10;99.90
56308;DHT22;42217;50.422;7.210;2023-04-20T08:19:18;4.10;99.90
56308;DHT22;42217;50.422;7.210;2023-04-20T08:21:44;4.30;99.90
56308;DHT22;42217;50.422;7.210;2023-04-20T08:24:09;4.30;99.90
56308;DHT22;42217;50.422;7.210;2023-04-20T08:26:36;4.40;99.90
56308;DHT22;42217;50.422;7.210;2023-04-20T08:29:02;4.30;99.90
56308;DHT22;42217;50.422;7.210;2023-04-20T08:31:28;4.30;99.90
56308;DHT22;42217;50.422;7.210;2023-04-20T08:33:54;4.20;99.90
56308;DHT22;42217;50.422;7.210;2023-04-20T08:36:19;4.20;99.90
56308;DHT22;42217;50.422;7.210;2023-04-20T08:38:49;4.00;99.90
56308;DHT22;42217;50.422;7.210;2023-04-20T08:41:15;4.10;99.90
56308;DHT22;42217;50.422;7.210;2023-04-20T08:43:41;4.20;99.90
56308;DHT22;42217;50.422;7.210;2023-04-20T08:46:06;4.20;99.90
56308;DHT22;42217;50.422;7.210;2023-04-20T08:48:36;4.30;99.90
56308;DHT22;42217;50.422;7.210;2023-04-20T08:51:03;4.30;99.90
56308;DHT22;42217;50.422;7.210;2023-04-20T08:53:32;4.30;99.90
56308;DHT22;42217;50.422;7.210;2023-04-20T08:55:58;4.40;99.90
56308;DHT22;42217;50.422;7.210;2023-04-20T08:58:27;4.50;99.90
56308;DHT22;42217;50.422;7.210;2023-04-20T09:00:53;4.60;99.90
56308;DHT22;42217;50.422;7.210;2023-04-20T09:03:33;4.80;99.90
56308;DHT22;42217;50.422;7.210;2023-04-20T09:05:59;5.00;99.90
56308;DHT22;42217;50.422;7.210;2023-04-20T09:08:39;5.20;99.90
56308;DHT22;42217;50.422;7.210;2023-04-20T09:11:05;5.40;99.90
56308;DHT22;42217;50.422;7.210;2023-04-20T09:13:31;5.40;99.90
56308;DHT22;42217;50.422;7.210;2023-04-20T09:15:57;5.40;99.90
56308;DHT22;42217;50.422;7.210;2023-04-20T09:18:33;5.40;99.90
56308;DHT22;42217;50.422;7.210;2023-04-20T09:21:09;5.40;99.90
56308;DHT22;42217;50.422;7.210;2023-04-20T09:23:35;5.50;99.90
56308;DHT22;42217;50.422;7.210;2023-04-20T09:26:00;5.70;99.90
56308;DHT22;42217;50.422;7.210;2023-04-20T09:28:35;6.00;99.90
56308;DHT22;42217;50.422;7.210;2023-04-20T09:31:03;6.40;99.90
56308;DHT22;42217;50.422;7.210;2023-04-20T09:33:29;6.80;99.90
56308;DHT22;42217;50.422;7.210;2023-04-20T09:36:03;7.20;99.90
56308;DHT22;42217;50.422;7.210;2023-04-20T09:38:29;7.60;99.90
56308;DHT22;42217;50.422;7.210;2023-04-20T09:40:57;7.90;99.90
56308;DHT22;42217;50.422;7.210;2023-04-20T09:43:27;8.00;99.90
56308;DHT22;42217;50.422;7.210;2023-04-20T09:45:54;8.10;99.90
56308;DHT22;42217;50.422;7.210;2023-04-20T09:48:21;8.00;99.90
56308;DHT22;42217;50.422;7.210;2023-04-20T09:50:47;8.00;99.90
56308;DHT22;42217;50.422;7.210;2023-04-20T09:53:15;7.80;99.90
56308;DHT22;42217;50.422;7.210;2023-04-20T09:55:48;7.60;99.90
56308;DHT22;42217;50.422;7.210;2023-04-20T09:58:17;7.50;99.90
56308;DHT22;42217;50.422;7.210;2023-04-20T10:00:43;7.20;99.90
56308;DHT22;42217;50.422;7.210;2023-04-20T10:03:09;7.10;99.90
56308;DHT22;42217;50.422;7.210;2023-04-20T10:05:37;7.40;99.90
56308;DHT22;42217;50.422;7.210;2023-04-20T10:08:04;7.90;99.90
56308;DHT22;42217;50.422;7.210;2023-04-20T10:10:41;8.20;99.90
56308;DHT22;42217;50.422;7.210;2023-04-20T10:13:07;7.90;99.90
56308;DHT22;42217;50.422;7.210;2023-04-20T10:15:40;7.50;99.90
56308;DHT22;42217;50.422;7.210;2023-04-20T10:18:21;7.20;99.90
56308;DHT22;42217;50.422;7.210;2023-04-20T10:20:51;6.90;99.90
56308;DHT22;42217;50.422;7.210;2023-04-20T10:23:28;6.80;99.90
56308;DHT22;42217;50.422;7.210;2023-04-20T10:25:58;6.70;99.90
56308;DHT22;42217;50.422;7.210;2023-04-20T10:28:25;6.80;99.90
56308;DHT22;42217;50.422;7.210;2023-04-20T10:31:01;7.20;99.90
56308;DHT22;42217;50.422;7.210;2023-04-20T10:33:27;7.80;99.90
56308;DHT22;42217;50.422;7.210;2023-04-20T10:35:54;8.20;99.90
56308;DHT22;42217;50.422;7.210;2023-04-20T10:38:28;8.40;99.90
56308;DHT22;42217;50.422;7.210;2023-04-20T10:40:54;8.30;99.90
56308;DHT22;42217;50.422;7.210;2023-04-20T10:43:21;8.40;99.90
56308;DHT22;42217;50.422;7.210;2023-04-20T10:45:48;7.90;99.90
56308;DHT22;42217;50.422;7.210;2023-04-20T10:48:14;7.70;99.90
56308;DHT22;42217;50.422;7.210;2023-04-20T10:50:40;7.70;99.90
56308;DHT22;42217;50.422;7.210;2023-04-20T10:53:17;7.80;99.90
56308;DHT22;42217;50.422;7.210;2023-04-20T10:55:43;8.00;99.90
56308;DHT22;42217;50.422;7.210;2023-04-20T10:58:20;8.60;99.90
56308;DHT22;42217;50.422;7.210;2023-04-20T11:00:59;9.50;99.90
56308;DHT22;42217;50.422;7.210;2023-04-20T11:03:27;10.10;99.90
56308;DHT22;42217;50.422;7.210;2023-04-20T11:05:53;10.40;99.90
56308;DHT22;42217;50.422;7.210;2023-04-20T11:08:19;10.50;99.90
56308;DHT22;42217;50.422;7.210;2023-04-20T11:10:44;10.00;99.90
56308;DHT22;42217;50.422;7.210;2023-04-20T11:13:22;9.90;99.90
56308;DHT22;42217;50.422;7.210;2023-04-20T11:15:50;10.30;99.90
56308;DHT22;42217;50.422;7.210;2023-04-20T11:18:16;10.50;99.90
56308;DHT22;42217;50.422;7.210;2023-04-20T11:20:52;10.60;99.90
56308;DHT22;42217;50.422;7.210;2023-04-20T11:23:20;10.50;99.90
56308;DHT22;42217;50.422;7.210;2023-04-20T11:25:55;10.40;99.90
56308;DHT22;42217;50.422;7.210;2023-04-20T11:28:22;10.30;99.90
56308;DHT22;42217;50.422;7.210;2023-04-20T11:30:48;10.30;99.90
56308;DHT22;42217;50.422;7.210;2023-04-20T11:33:27;10.60;99.90
56308;DHT22;42217;50.422;7.210;2023-04-20T11:35:55;10.80;96.20
56308;DHT22;42217;50.422;7.210;2023-04-20T11:38:32;11.10;99.90
56308;DHT22;42217;50.422;7.210;2023-04-20T11:40:58;11.20;95.40
56308;DHT22;42217;50.422;7.210;2023-04-20T11:43:30;11.30;99.10
56308;DHT22;42217;50.422;7.210;2023-04-20T11:45:57;11.70;96.10
56308;DHT22;42217;50.422;7.210;2023-04-20T11:48:23;12.10;94.40
56308;DHT22;42217;50.422;7.210;2023-04-20T11:50:48;12.40;78.30
56308;DHT22;42217;50.422;7.210;2023-04-20T11:53:14;12.50;73.30
56308;DHT22;42217;50.422;7.210;2023-04-20T11:55:41;12.80;76.10
56308;DHT22;42217;50.422;7.210;2023-04-20T11:58:07;13.30;61.00
56308;DHT22;42217;50.422;7.210;2023-04-20T12:00:33;13.40;45.60
56308;DHT22;42217;50.422;7.210;2023-04-20T12:02:59;13.60;30.40
56308;DHT22;42217;50.422;7.210;2023-04-20T12:05:27;13.90;20.30
56308;DHT22;42217;50.422;7.210;2023-04-20T12:07:53;14.50;1.00
56308;DHT22;42217;50.422;7.210;2023-04-20T12:10:20;14.00;1.00
56308;DHT22;42217;50.422;7.210;2023-04-20T12:12:46;13.90;1.00
56308;DHT22;42217;50.422;7.210;2023-04-20T12:15:12;13.60;1.00
56308;DHT22;42217;50.422;7.210;2023-04-20T12:17:37;13.40;1.00
56308;DHT22;42217;50.422;7.210;2023-04-20T12:20:03;13.20;1.00
56308;DHT22;42217;50.422;7.210;2023-04-20T12:22:33;12.30;5.20
56308;DHT22;42217;50.422;7.210;2023-04-20T12:24:59;12.00;7.90
56308;DHT22;42217;50.422;7.210;2023-04-20T12:27:25;11.60;40.20
56308;DHT22;42217;50.422;7.210;2023-04-20T12:29:51;11.60;22.00
56308;DHT22;42217;50.422;7.210;2023-04-20T12:32:16;11.60;39.10
56308;DHT22;42217;50.422;7.210;2023-04-20T12:34:42;11.90;30.60
56308;DHT22;42217;50.422;7.210;2023-04-20T12:37:08;12.10;25.70
56308;DHT22;42217;50.422;7.210;2023-04-20T12:39:34;12.20;18.70
56308;DHT22;42217;50.422;7.210;2023-04-20T12:41:59;11.70;32.00
56308;DHT22;42217;50.422;7.210;2023-04-20T12:44:26;11.40;10.50
56308;DHT22;42217;50.422;7.210;2023-04-20T12:46:52;11.40;39.80
56308;DHT22;42217;50.422;7.210;2023-04-20T12:49:18;11.20;64.60
56308;DHT22;42217;50.422;7.210;2023-04-20T12:51:43;11.50;39.90
56308;DHT22;42217;50.422;7.210;2023-04-20T12:54:09;11.60;51.00
56308;DHT22;42217;50.422;7.210;2023-04-20T12:56:36;12.00;29.70
56308;DHT22;42217;50.422;7.210;2023-04-20T12:59:02;12.00;13.70
56308;DHT22;42217;50.422;7.210;2023-04-20T13:01:28;12.00;1.00
56308;DHT22;42217;50.422;7.210;2023-04-20T13:03:54;12.00;8.40
56308;DHT22;42217;50.422;7.210;2023-04-20T13:06:19;11.80;1.00
56308;DHT22;42217;50.422;7.210;2023-04-20T13:08:45;11.60;20.70
56308;DHT22;42217;50.422;7.210;2023-04-20T13:11:11;11.10;16.40
56308;DHT22;42217;50.422;7.210;2023-04-20T13:13:39;10.80;38.00
56308;DHT22;42217;50.422;7.210;2023-04-20T13:16:05;10.70;72.30
56308;DHT22;42217;50.422;7.210;2023-04-20T13:18:31;11.10;29.70
56308;DHT22;42217;50.422;7.210;2023-04-20T13:20:57;11.90;11.80
56308;DHT22;42217;50.422;7.210;2023-04-20T13:23:23;12.50;1.00
56308;DHT22;42217;50.422;7.210;2023-04-20T13:25:48;12.50;1.00
56308;DHT22;42217;50.422;7.210;2023-04-20T13:28:16;12.80;1.00
56308;DHT22;42217;50.422;7.210;2023-04-20T13:30:42;13.50;1.00
56308;DHT22;42217;50.422;7.210;2023-04-20T13:33:08;14.00;99.90
56308;DHT22;42217;50.422;7.210;2023-04-20T13:35:34;14.00;99.90
56308;DHT22;42217;50.422;7.210;2023-04-20T13:38:01;13.70;1.00
56308;DHT22;42217;50.422;7.210;2023-04-20T13:40:27;13.20;1.00
56308;DHT22;42217;50.422;7.210;2023-04-20T13:42:52;12.00;1.00
56308;DHT22;42217;50.422;7.210;2023-04-20T13:45:18;10.90;28.50
56308;DHT22;42217;50.422;7.210;2023-04-20T13:47:44;9.70;63.20
56308;DHT22;42217;50.422;7.210;2023-04-20T13:50:10;9.20;91.90
56308;DHT22;42217;50.422;7.210;2023-04-20T13:52:36;9.10;94.80
56308;DHT22;42217;50.422;7.210;2023-04-20T13:55:03;9.10;91.80
56308;DHT22;42217;50.422;7.210;2023-04-20T13:57:29;9.10;81.30
56308;DHT22;42217;50.422;7.210;2023-04-20T13:59:56;9.80;82.50
56308;DHT22;42217;50.422;7.210;2023-04-20T14:02:23;10.40;40.50
56308;DHT22;42217;50.422;7.210;2023-04-20T14:04:49;11.80;8.20
56308;DHT22;42217;50.422;7.210;2023-04-20T14:07:15;12.50;1.00
56308;DHT22;42217;50.422;7.210;2023-04-20T14:09:41;12.10;1.00
56308;DHT22;42217;50.422;7.210;2023-04-20T14:12:09;11.20;20.30
56308;DHT22;42217;50.422;7.210;2023-04-20T14:14:35;10.60;61.00
56308;DHT22;42217;50.422;7.210;2023-04-20T14:17:01;9.80;87.10
56308;DHT22;42217;50.422;7.210;2023-04-20T14:19:27;9.10;99.90
56308;DHT22;42217;50.422;7.210;2023-04-20T14:21:53;8.60;99.90
56308;DHT22;42217;50.422;7.210;2023-04-20T14:24:18;8.10;99.90
56308;DHT22;42217;50.422;7.210;2023-04-20T14:26:44;7.80;99.90
56308;DHT22;42217;50.422;7.210;2023-04-20T14:29:10;7.90;99.90
56308;DHT22;42217;50.422;7.210;2023-04-20T14:31:35;8.00;99.90
56308;DHT22;42217;50.422;7.210;2023-04-20T14:34:01;8.20;99.90
56308;DHT22;42217;50.422;7.210;2023-04-20T14:36:27;8.60;99.90
56308;DHT22;42217;50.422;7.210;2023-04-20T14:38:54;9.60;99.90
56308;DHT22;42217;50.422;7.210;2023-04-20T14:41:20;10.80;81.00
56308;DHT22;42217;50.422;7.210;2023-04-20T14:43:46;12.20;52.40
56308;DHT22;42217;50.422;7.210;2023-04-20T14:46:11;13.80;18.40
56308;DHT22;42217;50.422;7.210;2023-04-20T14:48:37;13.90;1.00
56308;DHT22;42217;50.422;7.210;2023-04-20T14:51:04;14.10;1.00
56308;DHT22;42217;50.422;7.210;2023-04-20T14:53:29;14.80;1.00
56308;DHT22;42217;50.422;7.210;2023-04-20T14:55:55;15.50;99.90
56308;DHT22;42217;50.422;7.210;2023-04-20T14:58:21;15.70;99.90
56308;DHT22;42217;50.422;7.210;2023-04-20T15:00:47;15.70;99.90
56308;DHT22;42217;50.422;7.210;2023-04-20T15:03:15;15.60;91.70
56308;DHT22;42217;50.422;7.210;2023-04-20T15:05:41;15.90;99.90
56308;DHT22;42217;50.422;7.210;2023-04-20T15:08:06;16.50;1.00
56308;DHT22;42217;50.422;7.210;2023-04-20T15:10:32;16.70;99.90
56308;DHT22;42217;50.422;7.210;2023-04-20T15:12:58;16.90;99.90
56308;DHT22;42217;50.422;7.210;2023-04-20T15:15:24;17.30;1.00
56308;DHT22;42217;50.422;7.210;2023-04-20T15:17:50;17.60;99.90
56308;DHT22;42217;50.422;7.210;2023-04-20T15:20:16;18.20;1.00
56308;DHT22;42217;50.422;7.210;2023-04-20T15:22:41;18.10;69.80
56308;DHT22;42217;50.422;7.210;2023-04-20T15:25:08;18.50;1.00
56308;DHT22;42217;50.422;7.210;2023-04-20T15:27:34;18.60;1.00
56308;DHT22;42217;50.422;7.210;2023-04-20T15:30:01;19.00;1.00
56308;DHT22;42217;50.422;7.210;2023-04-20T15:32:27;19.10;99.90
56308;DHT22;42217;50.422;7.210;2023-04-20T15:34:54;19.20;7.20
56308;DHT22;42217;50.422;7.210;2023-04-20T15:37:20;18.80;99.90
56308;DHT22;42217;50.422;7.210;2023-04-20T15:39:46;19.50;1.00